createdAt,value
2022-08-05T00:00:54.969Z,24.00
2022-08-05T00:03:22.431Z,24.00
2022-08-05T00:06:05.671Z,24.00
2022-08-05T00:08:37.879Z,23.90
2022-08-05T00:11:20.537Z,23.80
2022-08-05T00:13:52.938Z,23.80
2022-08-05T00:16:36.108Z,23.80
2022-08-05T00:19:05.175Z,23.80
2022-08-05T00:21:35.648Z,23.80
2022-08-05T00:24:10.065Z,23.70
2022-08-05T00:26:37.476Z,23.70
2022-08-05T00:29:04.629Z,23.70
2022-08-05T00:31:54.474Z,23.70
2022-08-05T00:34:53.261Z,23.70
2022-08-05T00:37:20.187Z,23.60
2022-08-05T00:39:58.340Z,23.60
2022-08-05T00:42:36.766Z,23.50
2022-08-05T00:45:08.761Z,23.40
2022-08-05T00:47:52.945Z,23.40
2022-08-05T00:50:25.270Z,23.20
2022-08-05T00:52:55.019Z,23.20
2022-08-05T00:55:22.871Z,23.20
2022-08-05T00:57:58.472Z,23.20
2022-08-05T01:00:29.225Z,23.20
2022-08-05T01:02:58.078Z,23.20
2022-08-05T01:05:28.012Z,23.20
2022-08-05T01:08:41.363Z,23.20
2022-08-05T01:11:21.736Z,23.20
2022-08-05T01:14:00.165Z,23.20
2022-08-05T01:17:00.299Z,23.30
2022-08-05T01:20:01.963Z,23.30
2022-08-05T01:23:05.811Z,23.30
2022-08-05T01:25:50.250Z,23.20
2022-08-05T01:28:36.008Z,23.20
2022-08-05T01:31:15.901Z,23.20
2022-08-05T01:33:53.538Z,23.20
2022-08-05T01:36:28.407Z,23.20
2022-08-05T01:38:57.508Z,23.20
2022-08-05T01:41:32.753Z,23.20
2022-08-05T01:44:02.435Z,23.20
2022-08-05T01:46:42.154Z,23.20
2022-08-05T01:49:23.042Z,23.30
2022-08-05T01:51:58.377Z,23.30
2022-08-05T01:54:30.666Z,23.30
2022-08-05T01:58:12.153Z,23.30
2022-08-05T01:59:48.976Z,23.30
2022-08-05T02:02:18.506Z,23.30
2022-08-05T02:04:56.774Z,23.30
2022-08-05T02:07:24.688Z,23.30
2022-08-05T02:09:58.033Z,23.20
2022-08-05T02:12:34.600Z,23.10
2022-08-05T02:15:12.792Z,23.00
2022-08-05T02:18:30.645Z,23.00
2022-08-05T02:21:02.643Z,22.90
2022-08-05T02:23:33.654Z,22.70
2022-08-05T02:26:06.598Z,22.60
2022-08-05T02:28:41.705Z,22.60
2022-08-05T02:31:21.084Z,22.70
2022-08-05T02:33:58.053Z,22.60
2022-08-05T02:36:31.148Z,22.50
2022-08-05T02:39:00.771Z,22.50
2022-08-05T02:41:43.011Z,22.40
2022-08-05T02:44:18.334Z,22.40
2022-08-05T02:46:58.945Z,22.40
2022-08-05T02:49:36.085Z,22.40
2022-08-05T02:52:09.417Z,22.40
2022-08-05T02:54:41.632Z,22.40
2022-08-05T02:58:11.990Z,22.40
2022-08-05T03:00:02.468Z,22.40
2022-08-05T03:02:34.628Z,22.40
2022-08-05T03:05:02.415Z,22.40
2022-08-05T03:07:59.322Z,22.40
2022-08-05T03:10:24.571Z,22.40
2022-08-05T03:12:54.271Z,22.40
2022-08-05T03:15:23.407Z,22.50
2022-08-05T03:17:54.183Z,22.50
2022-08-05T03:20:23.571Z,22.50
2022-08-05T03:22:52.041Z,22.50
2022-08-05T03:25:32.588Z,22.50
2022-08-05T03:28:14.073Z,22.50
2022-08-05T03:30:42.472Z,22.50
2022-08-05T03:33:10.405Z,22.50
2022-08-05T03:35:41.870Z,22.50
2022-08-05T03:38:14.583Z,22.50
2022-08-05T03:40:48.490Z,22.50
2022-08-05T03:44:09.236Z,22.60
2022-08-05T03:46:05.025Z,22.60
2022-08-05T03:48:35.543Z,22.60
2022-08-05T03:52:38.779Z,22.50
2022-08-05T03:55:53.174Z,22.50
2022-08-05T03:56:46.910Z,22.50
2022-08-05T03:59:47.619Z,22.50
2022-08-05T04:02:37.490Z,22.40
2022-08-05T04:05:10.123Z,22.40
2022-08-05T04:07:57.075Z,22.40
2022-08-05T04:10:27.537Z,22.40
2022-08-05T04:12:58.999Z,22.40
2022-08-05T04:15:27.766Z,22.40
2022-08-05T04:18:03.966Z,22.50
2022-08-05T04:20:34.738Z,22.40
2022-08-05T04:23:01.929Z,22.40
2022-08-05T04:25:38.707Z,22.30
2022-08-05T04:28:17.253Z,22.20
2022-08-05T04:30:45.396Z,22.20
2022-08-05T04:33:14.224Z,22.10
2022-08-05T04:36:15.565Z,22.00
2022-08-05T04:38:39.498Z,22.00
2022-08-05T04:41:09.614Z,22.00
2022-08-05T04:43:46.620Z,22.00
2022-08-05T04:46:28.287Z,21.90
2022-08-05T04:48:58.954Z,21.80
2022-08-05T04:51:30.464Z,21.80
2022-08-05T04:53:57.784Z,21.80
2022-08-05T04:56:34.731Z,21.80
2022-08-05T04:59:21.696Z,21.70
2022-08-05T05:02:35.252Z,21.70
2022-08-05T05:04:47.550Z,21.70
2022-08-05T05:07:23.870Z,21.60
2022-08-05T05:09:56.173Z,21.50
2022-08-05T05:12:24.492Z,21.50
2022-08-05T05:14:54.549Z,21.50
2022-08-05T05:17:24.559Z,21.40
2022-08-05T05:19:56.687Z,21.40
2022-08-05T05:22:26.528Z,21.40
2022-08-05T05:25:00.244Z,21.40
2022-08-05T05:27:44.479Z,21.50
2022-08-05T05:30:30.449Z,21.50
2022-08-05T05:33:13.883Z,21.50
2022-08-05T05:35:47.449Z,21.50
2022-08-05T05:38:27.132Z,21.60
2022-08-05T05:40:57.878Z,21.60
2022-08-05T05:43:57.319Z,21.50
2022-08-05T05:46:17.552Z,21.50
2022-08-05T05:48:48.377Z,21.50
2022-08-05T05:51:20.717Z,21.60
2022-08-05T05:53:58.234Z,21.70
2022-08-05T05:56:34.842Z,21.80
2022-08-05T05:59:06.720Z,21.90
2022-08-05T06:01:38.165Z,22.00
2022-08-05T06:04:11.725Z,22.00
2022-08-05T06:06:47.529Z,21.90
2022-08-05T06:09:24.831Z,21.80
2022-08-05T06:12:02.154Z,21.80
2022-08-05T06:14:30.923Z,21.80
2022-08-05T06:16:58.467Z,21.80
2022-08-05T06:19:35.088Z,21.80
2022-08-05T06:22:04.292Z,21.80
2022-08-05T06:24:34.207Z,21.70
2022-08-05T06:27:02.322Z,21.80
2022-08-05T06:29:48.927Z,21.80
2022-08-05T06:32:24.903Z,21.90
2022-08-05T06:34:56.656Z,22.10
2022-08-05T06:37:56.611Z,22.20
2022-08-05T06:40:20.890Z,22.40
2022-08-05T06:42:54.746Z,22.60
2022-08-05T06:45:44.944Z,22.70
2022-08-05T06:48:37.317Z,22.70
2022-08-05T06:50:57.020Z,22.80
2022-08-05T06:53:28.505Z,22.90
2022-08-05T06:56:00.358Z,22.90
2022-08-05T06:58:35.448Z,23.00
2022-08-05T07:01:06.023Z,23.10
2022-08-05T07:03:34.262Z,23.20
2022-08-05T07:06:06.010Z,23.30
2022-08-05T07:08:47.458Z,23.40
2022-08-05T07:11:22.675Z,23.50
2022-08-05T07:14:20.569Z,23.70
2022-08-05T07:17:57.135Z,23.70
2022-08-05T07:22:36.245Z,23.90
2022-08-05T07:25:24.079Z,24.00
2022-08-05T07:27:57.948Z,24.10
2022-08-05T07:30:32.297Z,24.20
2022-08-05T07:33:04.951Z,24.20
2022-08-05T07:36:01.748Z,24.30
2022-08-05T07:38:33.910Z,24.40
2022-08-05T07:42:08.761Z,24.50
2022-08-05T07:43:56.930Z,24.60
2022-08-05T07:46:28.892Z,24.60
2022-08-05T07:49:02.656Z,24.70
2022-08-05T07:51:36.610Z,24.70
2022-08-05T07:54:08.392Z,24.80
2022-08-05T07:57:00.937Z,24.80
2022-08-05T07:59:38.403Z,24.80
2022-08-05T08:02:15.274Z,24.80
2022-08-05T08:04:45.653Z,24.90
2022-08-05T08:07:14.129Z,25.00
2022-08-05T08:09:42.728Z,25.10
2022-08-05T08:12:28.541Z,25.10
2022-08-05T08:14:57.625Z,25.20
2022-08-05T08:17:30.426Z,25.20
2022-08-05T08:20:22.956Z,25.20
2022-08-05T08:22:50.645Z,25.30
2022-08-05T08:25:27.140Z,25.60
2022-08-05T08:28:06.054Z,25.80
2022-08-05T08:30:47.342Z,25.90
2022-08-05T08:33:16.685Z,26.10
2022-08-05T08:35:53.180Z,26.20
2022-08-05T08:38:36.044Z,26.20
2022-08-05T08:41:10.319Z,26.30
2022-08-05T08:45:18.027Z,26.30
2022-08-05T08:46:32.181Z,26.40
2022-08-05T08:49:17.322Z,26.50
2022-08-05T08:52:05.727Z,26.70
2022-08-05T08:54:42.301Z,26.90
2022-08-05T08:57:11.338Z,27.00
2022-08-05T08:59:39.205Z,26.80
2022-08-05T09:02:10.158Z,26.60
2022-08-05T09:04:58.410Z,26.60
2022-08-05T09:07:28.410Z,26.70
2022-08-05T09:09:56.279Z,26.80
2022-08-05T09:12:27.320Z,26.80
2022-08-05T09:15:04.742Z,26.90
2022-08-05T09:17:43.253Z,27.20
2022-08-05T09:20:36.529Z,27.70
2022-08-05T09:23:19.829Z,28.00
2022-08-05T09:26:00.121Z,28.10
2022-08-05T09:28:33.540Z,28.10
2022-08-05T09:31:43.396Z,28.20
2022-08-05T09:34:02.652Z,28.00
2022-08-05T09:36:55.279Z,27.80
2022-08-05T09:39:24.902Z,27.50
2022-08-05T09:42:23.517Z,27.20
2022-08-05T09:44:57.164Z,26.90
2022-08-05T09:47:36.314Z,26.70
2022-08-05T09:50:37.406Z,26.60
2022-08-05T09:53:06.244Z,26.50
2022-08-05T09:55:57.837Z,26.30
2022-08-05T09:58:24.092Z,26.20
2022-08-05T10:01:01.562Z,26.10
2022-08-05T10:03:58.915Z,26.10
2022-08-05T10:06:31.067Z,26.10
2022-08-05T10:09:25.350Z,26.10
2022-08-05T10:12:30.053Z,26.00
2022-08-05T10:15:21.042Z,26.00
2022-08-05T10:18:04.748Z,26.00
2022-08-05T10:20:34.279Z,25.90
2022-08-05T10:23:01.989Z,25.80
2022-08-05T10:25:30.526Z,25.70
2022-08-05T10:28:13.271Z,25.50
2022-08-05T10:32:48.228Z,25.30
2022-08-05T10:33:34.301Z,25.10
2022-08-05T10:36:04.818Z,25.00
2022-08-05T10:39:24.847Z,25.00
2022-08-05T10:55:09.757Z,25.30
2022-08-05T10:57:39.678Z,25.50
2022-08-05T11:00:24.236Z,25.60
2022-08-05T11:03:25.890Z,25.60
2022-08-05T11:06:15.032Z,25.70
2022-08-05T11:14:57.350Z,25.70
2022-08-05T11:17:57.056Z,25.80
2022-08-05T11:20:46.178Z,25.90
2022-08-05T11:24:04.719Z,25.90
2022-08-05T11:26:35.391Z,26.00
2022-08-05T11:29:11.817Z,26.10
2022-08-05T11:31:58.420Z,26.20
2022-08-05T11:34:51.372Z,26.30
2022-08-05T11:38:36.632Z,26.70
2022-08-05T11:41:01.035Z,27.20
2022-08-05T11:44:04.375Z,27.30
2022-08-05T11:46:32.503Z,27.40
2022-08-05T11:49:01.658Z,27.40
2022-08-05T11:51:44.794Z,27.40
2022-08-05T11:54:34.373Z,27.30
2022-08-05T11:57:08.000Z,27.10
2022-08-05T11:59:49.557Z,27.20
2022-08-05T12:02:17.135Z,27.40
2022-08-05T12:05:00.871Z,27.50
2022-08-05T12:08:08.727Z,27.40
2022-08-05T12:10:24.947Z,27.40
2022-08-05T12:13:16.955Z,27.30
2022-08-05T12:15:49.903Z,27.20
2022-08-05T12:18:39.003Z,27.30
2022-08-05T12:21:29.741Z,27.40
2022-08-05T12:24:11.803Z,27.60
2022-08-05T12:26:44.156Z,27.60
2022-08-05T12:29:17.845Z,27.40
2022-08-05T12:31:53.405Z,27.20
2022-08-05T12:34:24.071Z,27.00
2022-08-05T12:36:54.747Z,26.90
2022-08-05T12:39:34.545Z,27.10
2022-08-05T12:42:20.681Z,27.40
2022-08-05T12:44:50.522Z,27.70
2022-08-05T12:47:43.447Z,27.70
2022-08-05T12:50:28.145Z,27.60
2022-08-05T12:53:03.450Z,27.40
2022-08-05T12:55:35.385Z,27.10
2022-08-05T12:58:50.751Z,27.00
2022-08-05T13:02:05.014Z,27.00
2022-08-05T13:03:45.745Z,27.10
2022-08-05T13:06:17.521Z,27.30
2022-08-05T13:08:51.919Z,27.20
2022-08-05T13:11:25.519Z,27.00
2022-08-05T13:14:36.269Z,27.00
2022-08-05T13:17:20.607Z,27.00
2022-08-05T13:20:06.060Z,27.00
2022-08-05T13:22:38.695Z,26.90
2022-08-05T13:25:19.558Z,26.70
2022-08-05T13:27:51.605Z,26.80
2022-08-05T13:30:34.837Z,26.90
2022-08-05T13:33:06.540Z,27.10
2022-08-05T13:35:47.191Z,27.20
2022-08-05T13:38:28.172Z,27.30
2022-08-05T13:40:59.172Z,27.30
2022-08-05T13:43:44.020Z,27.40
2022-08-05T13:46:13.858Z,27.40
2022-08-05T13:48:58.907Z,27.20
2022-08-05T13:51:36.456Z,27.00
2022-08-05T13:54:12.657Z,27.00
2022-08-05T13:56:45.038Z,27.00
2022-08-05T13:59:21.128Z,27.10
2022-08-05T14:01:56.471Z,27.20
2022-08-05T14:04:49.510Z,27.40
2022-08-05T14:07:56.290Z,27.30
2022-08-05T14:10:19.127Z,27.30
2022-08-05T14:12:57.465Z,27.20
2022-08-05T14:16:05.219Z,27.20
2022-08-05T14:18:17.653Z,27.20
2022-08-05T14:20:54.349Z,27.00
2022-08-05T14:23:24.806Z,26.90
2022-08-05T14:26:00.662Z,27.10
2022-08-05T14:28:29.087Z,27.20
2022-08-05T14:30:57.319Z,27.20
2022-08-05T14:33:59.150Z,27.10
2022-08-05T14:36:21.766Z,27.00
2022-08-05T14:38:49.957Z,26.80
2022-08-05T14:41:18.703Z,26.60
2022-08-05T14:43:59.342Z,26.40
2022-08-05T14:46:35.342Z,26.30
2022-08-05T14:49:06.715Z,26.00
2022-08-05T14:51:37.615Z,26.00
2022-08-05T14:54:28.021Z,25.90
2022-08-05T14:56:54.790Z,25.90
2022-08-05T14:59:22.148Z,25.80
2022-08-05T15:01:49.973Z,25.70
2022-08-05T15:04:20.247Z,25.70
2022-08-05T15:06:49.136Z,25.80
2022-08-05T15:09:50.662Z,26.00
2022-08-05T15:12:06.139Z,26.20
2022-08-05T15:14:48.239Z,26.10
2022-08-05T15:17:46.984Z,26.00
2022-08-05T15:20:04.895Z,25.70
2022-08-05T15:22:31.828Z,25.50
2022-08-05T15:25:00.095Z,25.30
2022-08-05T15:27:32.169Z,25.20
2022-08-05T15:30:04.023Z,25.20
2022-08-05T15:32:31.139Z,25.10
2022-08-05T15:34:58.766Z,25.30
2022-08-05T15:38:34.854Z,25.30
2022-08-05T15:41:02.133Z,25.60
2022-08-05T15:43:12.526Z,25.80
2022-08-05T15:46:00.818Z,25.70
2022-08-05T15:48:29.993Z,25.60
2022-08-05T15:50:59.830Z,25.50
2022-08-05T15:53:38.375Z,25.30
2022-08-05T15:56:17.854Z,25.30
2022-08-05T15:58:44.827Z,25.20
2022-08-05T16:01:16.284Z,25.20
2022-08-05T16:03:48.393Z,25.20
2022-08-05T16:06:20.215Z,25.20
2022-08-05T16:08:50.270Z,25.20
2022-08-05T16:11:20.926Z,25.20
2022-08-05T16:14:06.153Z,25.30
2022-08-05T16:16:35.214Z,25.40
2022-08-05T16:19:02.505Z,25.40
2022-08-05T16:21:58.302Z,25.30
2022-08-05T16:24:41.007Z,25.30
2022-08-05T16:27:07.298Z,25.40
2022-08-05T16:29:37.676Z,25.50
2022-08-05T16:32:09.903Z,25.50
2022-08-05T16:34:37.299Z,25.50
2022-08-05T16:38:02.895Z,25.60
2022-08-05T16:40:06.248Z,25.70
2022-08-05T16:42:35.125Z,25.70
2022-08-05T16:45:05.963Z,25.80
2022-08-05T16:47:54.320Z,25.90
2022-08-05T16:50:24.547Z,25.80
2022-08-05T16:52:51.579Z,25.60
2022-08-05T16:55:20.426Z,25.40
2022-08-05T16:57:53.019Z,25.60
2022-08-05T17:00:26.240Z,25.80
2022-08-05T17:03:09.225Z,25.80
2022-08-05T17:05:54.448Z,25.50
2022-08-05T17:08:35.806Z,25.10
2022-08-05T17:11:04.140Z,25.10
2022-08-05T17:13:37.335Z,25.50
2022-08-05T17:16:29.674Z,25.50
2022-08-05T17:18:57.302Z,25.20
2022-08-05T17:21:25.303Z,24.80
2022-08-05T17:24:27.967Z,24.90
2022-08-05T17:26:58.005Z,25.50
2022-08-05T17:29:33.324Z,26.20
2022-08-05T17:32:02.545Z,26.50
2022-08-05T17:34:38.015Z,26.70
2022-08-05T17:37:39.341Z,27.10
2022-08-05T17:39:59.861Z,27.50
2022-08-05T17:42:31.914Z,27.70
2022-08-05T17:45:17.849Z,28.10
2022-08-05T17:47:54.496Z,28.40
2022-08-05T17:50:29.473Z,28.50
2022-08-05T17:53:01.960Z,28.40
2022-08-05T17:55:38.406Z,28.00
2022-08-05T17:58:11.252Z,27.40
2022-08-05T18:00:50.933Z,26.70
2022-08-05T18:03:55.901Z,26.00
2022-08-05T18:06:12.271Z,25.50
2022-08-05T18:08:44.752Z,25.10
2022-08-05T18:11:24.759Z,24.80
2022-08-05T18:14:03.422Z,24.40
2022-08-05T18:16:32.134Z,24.00
2022-08-05T18:19:00.256Z,23.80
2022-08-05T18:21:28.068Z,23.70
2022-08-05T18:24:14.537Z,23.50
2022-08-05T18:26:41.661Z,23.30
2022-08-05T18:29:10.753Z,23.00
2022-08-05T18:31:38.528Z,22.70
2022-08-05T18:34:12.276Z,22.50
2022-08-05T18:36:41.366Z,22.30
2022-08-05T18:39:42.122Z,22.20
2022-08-05T18:42:06.323Z,22.00
2022-08-05T18:44:49.269Z,21.90
2022-08-05T18:47:22.892Z,21.80
2022-08-05T18:50:12.977Z,21.60
2022-08-05T18:52:51.029Z,21.60
2022-08-05T18:55:20.315Z,21.50
2022-08-05T18:57:53.858Z,21.40
2022-08-05T19:00:30.318Z,21.30
2022-08-05T19:03:03.589Z,21.30
2022-08-05T19:06:13.328Z,21.20
2022-08-05T19:08:21.631Z,21.10
2022-08-05T19:10:50.130Z,21.00
2022-08-05T19:13:17.732Z,20.90
2022-08-05T19:15:57.582Z,20.90
2022-08-05T19:18:28.816Z,20.80
2022-08-05T19:20:56.042Z,20.70
2022-08-05T19:24:06.996Z,20.70
2022-08-05T19:26:11.179Z,20.60
2022-08-05T19:28:43.399Z,20.60
2022-08-05T19:31:13.447Z,20.60
2022-08-05T19:33:48.734Z,20.50
2022-08-05T19:36:29.222Z,20.50
2022-08-05T19:39:01.683Z,20.40
2022-08-05T19:41:58.264Z,20.40
2022-08-05T19:44:19.206Z,20.30
2022-08-05T19:46:50.329Z,20.30
2022-08-05T19:49:18.050Z,20.20
2022-08-05T19:52:04.983Z,20.20
2022-08-05T19:54:35.823Z,20.10
2022-08-05T19:57:09.856Z,20.00
2022-08-05T19:59:54.549Z,19.90
2022-08-05T20:02:38.498Z,19.90
2022-08-05T20:05:09.460Z,19.80
2022-08-05T20:07:47.766Z,19.80
2022-08-05T20:10:19.228Z,19.70
2022-08-05T20:12:54.850Z,19.70
2022-08-05T20:15:51.796Z,19.60
2022-08-05T20:18:33.552Z,19.60
2022-08-05T20:21:08.023Z,19.50
2022-08-05T20:24:11.626Z,19.40
2022-08-05T20:26:50.486Z,19.40
2022-08-05T20:29:26.569Z,19.40
2022-08-05T20:31:58.374Z,19.30
2022-08-05T20:34:27.319Z,19.30
2022-08-05T20:36:54.752Z,19.20
2022-08-05T20:39:23.155Z,19.20
2022-08-05T20:41:57.202Z,19.20
2022-08-05T20:44:31.120Z,19.10
2022-08-05T20:47:00.573Z,19.10
2022-08-05T20:49:33.319Z,19.10
2022-08-05T20:52:13.130Z,19.00
2022-08-05T20:54:43.557Z,19.00
2022-08-05T20:57:43.912Z,19.00
2022-08-05T21:00:40.636Z,19.00
2022-08-05T21:03:08.441Z,18.90
2022-08-05T21:05:53.626Z,18.90
2022-08-05T21:08:42.439Z,18.90
2022-08-05T21:11:12.662Z,18.90
2022-08-05T21:13:55.779Z,18.80
2022-08-05T21:16:34.616Z,18.80
2022-08-05T21:19:03.583Z,18.80
2022-08-05T21:21:44.026Z,18.80
2022-08-05T21:24:21.401Z,18.70
2022-08-05T21:26:53.754Z,18.80
2022-08-05T21:29:26.588Z,18.70
2022-08-05T21:32:08.081Z,18.70
2022-08-05T21:34:35.793Z,18.70
2022-08-05T21:37:05.713Z,18.70
2022-08-05T21:39:34.542Z,18.70
2022-08-05T21:42:05.743Z,18.70
2022-08-05T21:44:35.917Z,18.60
2022-08-05T21:47:05.628Z,18.60
2022-08-05T21:49:58.813Z,18.60
2022-08-05T21:52:28.953Z,18.60
2022-08-05T21:55:06.418Z,18.60
2022-08-05T21:57:42.984Z,18.60
2022-08-05T22:00:11.874Z,18.60
2022-08-05T22:02:46.213Z,18.60
2022-08-05T22:05:13.939Z,18.60
2022-08-05T22:07:58.102Z,18.60
2022-08-05T22:10:27.744Z,18.60
2022-08-05T22:12:58.754Z,18.60
2022-08-05T22:16:01.211Z,18.60
2022-08-05T22:18:19.511Z,18.60
2022-08-05T22:20:52.372Z,18.50
2022-08-05T22:24:02.476Z,18.50
2022-08-05T22:26:49.902Z,18.50
2022-08-05T22:29:26.785Z,18.50
2022-08-05T22:31:59.317Z,18.50
2022-08-05T22:34:28.714Z,18.50
2022-08-05T22:36:58.505Z,18.50
2022-08-05T22:39:31.114Z,18.50
2022-08-05T22:42:09.646Z,18.50
2022-08-05T22:44:41.129Z,18.50
2022-08-05T22:47:14.384Z,18.40
2022-08-05T22:50:18.141Z,18.40
2022-08-05T22:52:46.901Z,18.40
2022-08-05T22:55:19.298Z,18.30
2022-08-05T22:57:49.034Z,18.30
2022-08-05T23:00:20.849Z,18.30
2022-08-05T23:02:54.689Z,18.30
2022-08-05T23:05:24.042Z,18.30
2022-08-05T23:07:55.343Z,18.30
2022-08-05T23:10:24.093Z,18.30
2022-08-05T23:12:55.099Z,18.30
2022-08-05T23:15:29.984Z,18.30
2022-08-05T23:18:03.703Z,18.20
2022-08-05T23:20:37.321Z,18.10
2022-08-05T23:23:07.976Z,18.00
2022-08-05T23:25:52.477Z,18.00
2022-08-05T23:28:22.370Z,17.90
2022-08-05T23:30:54.728Z,17.90
2022-08-05T23:34:02.619Z,17.90
2022-08-05T23:36:13.802Z,17.90
2022-08-05T23:38:41.661Z,17.80
2022-08-05T23:41:10.179Z,17.80
2022-08-05T23:44:04.754Z,17.70
2022-08-05T23:46:24.515Z,17.60
2022-08-05T23:49:00.440Z,17.60
2022-08-05T23:51:54.888Z,17.50
2022-08-05T23:54:25.211Z,17.50
2022-08-05T23:56:54.419Z,17.50
2022-08-05T23:59:23.083Z,17.50
